createdAt,value
2023-10-27T00:04:23.237Z,94995.56
2023-10-27T00:09:26.473Z,94986.50
2023-10-27T00:14:28.846Z,94983.09
2023-10-27T00:19:30.804Z,94983.34
2023-10-27T00:24:33.042Z,94979.47
2023-10-27T00:29:35.313Z,94988.16
2023-10-27T00:34:37.172Z,94990.72
2023-10-27T00:39:42.934Z,94988.59
2023-10-27T00:44:44.847Z,94998.06
2023-10-27T00:49:47.274Z,94992.13
2023-10-27T00:54:52.195Z,94986.31
2023-10-27T00:59:54.316Z,94991.66
2023-10-27T01:04:56.523Z,94985.91
2023-10-27T01:09:58.339Z,95000.13
2023-10-27T01:15:00.269Z,95004.28
2023-10-27T01:20:03.018Z,95000.28
2023-10-27T01:25:05.943Z,94991.56
2023-10-27T01:30:09.800Z,94992.63
2023-10-27T01:35:11.989Z,94999.69
2023-10-27T01:40:13.927Z,94988.06
2023-10-27T01:45:16.935Z,94975.22
2023-10-27T01:50:19.168Z,94980.06
2023-10-27T01:55:21.356Z,94977.09
2023-10-27T02:00:23.530Z,94979.53
2023-10-27T02:05:25.316Z,94979.56
2023-10-27T02:10:27.281Z,94979.09
2023-10-27T02:15:29.227Z,94979.75
2023-10-27T02:20:31.686Z,94978.63
2023-10-27T02:25:33.574Z,94989.28
2023-10-27T02:30:37.002Z,94998.97
2023-10-27T02:35:38.749Z,94995.97
2023-10-27T02:40:42.076Z,94999.03
2023-10-27T02:45:43.975Z,95004.38
2023-10-27T02:50:45.745Z,94997.16
2023-10-27T02:55:47.999Z,94992.50
2023-10-27T03:00:49.746Z,95004.88
2023-10-27T03:05:51.562Z,94990.34
2023-10-27T03:10:53.365Z,94994.72
2023-10-27T03:15:55.230Z,94998.56
2023-10-27T03:20:58.486Z,95005.03
2023-10-27T03:26:00.368Z,95004.41
2023-10-27T03:31:02.720Z,95003.13
2023-10-27T03:36:05.739Z,95002.34
2023-10-27T03:41:09.681Z,95001.88
2023-10-27T03:46:11.904Z,94992.66
2023-10-27T03:51:14.135Z,94987.97
2023-10-27T03:56:16.268Z,94998.75
2023-10-27T04:01:18.504Z,94995.16
2023-10-27T04:06:21.524Z,94986.28
2023-10-27T04:11:23.412Z,94979.22
2023-10-27T04:16:44.935Z,94976.63
2023-10-27T04:21:46.702Z,94981.78
2023-10-27T04:26:48.463Z,94976.47
2023-10-27T04:31:50.313Z,94979.22
2023-10-27T04:36:52.259Z,94986.00
2023-10-27T04:41:54.248Z,94985.19
2023-10-27T04:46:56.032Z,94970.50
2023-10-27T04:51:57.822Z,94986.94
2023-10-27T04:56:59.617Z,94986.50
2023-10-27T05:02:01.410Z,94977.94
2023-10-27T05:07:04.599Z,94982.44
2023-10-27T05:12:06.795Z,94985.63
2023-10-27T05:17:09.351Z,94987.25
2023-10-27T05:22:11.487Z,94986.16
2023-10-27T05:27:13.236Z,94989.50
2023-10-27T05:32:16.607Z,94987.91
2023-10-27T05:37:18.569Z,94983.88
2023-10-27T05:42:20.411Z,94977.28
2023-10-27T05:47:22.371Z,94992.34
2023-10-27T05:52:24.185Z,94990.25
2023-10-27T05:57:26.345Z,94981.56
2023-10-27T06:02:28.613Z,95006.81
2023-10-27T06:07:30.452Z,95016.75
2023-10-27T06:12:34.842Z,95029.41
2023-10-27T06:17:37.201Z,95046.50
2023-10-27T06:22:39.423Z,95054.00
2023-10-27T06:27:41.241Z,95050.44
2023-10-27T06:32:43.111Z,95060.06
2023-10-27T06:37:45.588Z,95057.44
2023-10-27T06:42:47.730Z,95058.25
2023-10-27T06:47:49.689Z,95050.97
2023-10-27T06:52:51.545Z,95047.63
2023-10-27T06:57:53.419Z,95061.34
2023-10-27T07:02:57.405Z,95042.94
2023-10-27T07:07:59.962Z,95056.00
2023-10-27T07:13:01.846Z,95058.09
2023-10-27T07:18:03.726Z,95063.34
2023-10-27T07:23:05.531Z,95062.69
2023-10-27T07:28:07.619Z,95057.69
2023-10-27T07:33:11.286Z,95069.94
2023-10-27T07:38:13.030Z,95070.25
2023-10-27T07:43:14.834Z,95072.66
2023-10-27T07:48:16.905Z,95061.44
2023-10-27T07:53:18.732Z,95076.16
2023-10-27T07:58:25.975Z,95058.53
2023-10-27T08:03:29.705Z,95067.25
2023-10-27T08:08:31.743Z,95075.47
2023-10-27T08:13:34.069Z,95075.47
2023-10-27T08:18:36.664Z,95085.47
2023-10-27T08:23:38.588Z,95089.84
2023-10-27T08:28:40.464Z,95089.84
2023-10-27T08:33:42.457Z,95094.41
2023-10-27T08:38:44.309Z,95088.63
2023-10-27T08:43:46.537Z,95095.28
2023-10-27T08:48:48.680Z,95112.44
2023-10-27T08:53:52.974Z,95123.91
2023-10-27T08:58:54.766Z,95137.91
2023-10-27T09:04:13.201Z,95143.03
2023-10-27T09:09:16.038Z,95137.19
2023-10-27T09:14:21.640Z,95144.06
2023-10-27T09:19:28.438Z,95155.63
2023-10-27T09:24:30.987Z,95160.56
2023-10-27T09:29:43.808Z,95154.91
2023-10-27T09:34:45.992Z,95167.00
2023-10-27T09:39:47.873Z,95176.88
2023-10-27T09:45:07.893Z,95174.88
2023-10-27T09:50:14.512Z,95191.63
2023-10-27T09:55:19.935Z,95196.50
2023-10-27T10:00:33.256Z,95196.97
2023-10-27T10:06:13.405Z,95195.22
2023-10-27T10:11:17.524Z,95208.66
2023-10-27T10:16:21.740Z,95197.84
2023-10-27T10:21:39.877Z,95186.69
2023-10-27T10:27:05.715Z,95196.53
2023-10-27T10:32:31.024Z,95196.69
2023-10-27T10:37:33.150Z,95199.59
2023-10-27T10:43:13.592Z,95186.13
2023-10-27T10:48:15.850Z,95201.94
2023-10-27T10:53:20.808Z,95196.63
2023-10-27T10:58:31.785Z,95192.28
2023-10-27T11:03:37.409Z,95207.13
2023-10-27T11:08:40.142Z,95198.91
2023-10-27T11:13:45.163Z,95198.72
2023-10-27T11:18:49.190Z,95203.84
2023-10-27T11:23:52.281Z,95185.53
2023-10-27T11:28:59.570Z,95172.09
2023-10-27T11:34:13.105Z,95205.16
2023-10-27T11:39:14.912Z,95192.81
2023-10-27T11:44:17.899Z,95217.91
2023-10-27T11:49:19.745Z,95214.25
2023-10-27T11:54:25.054Z,95229.75
2023-10-27T11:59:27.032Z,95246.34
2023-10-27T12:04:29.292Z,95247.19
2023-10-27T12:09:31.258Z,95238.75
2023-10-27T12:14:33.031Z,95226.47
2023-10-27T12:19:35.220Z,95231.31
2023-10-27T12:24:37.073Z,95241.19
2023-10-27T12:29:38.904Z,95240.19
2023-10-27T12:34:41.885Z,95259.09
2023-10-27T12:39:43.928Z,95259.38
2023-10-27T12:44:46.563Z,95260.97
2023-10-27T12:49:49.732Z,95265.47
2023-10-27T12:54:51.654Z,95270.47
2023-10-27T12:59:54.589Z,95286.66
2023-10-27T13:04:57.966Z,95279.31
2023-10-27T13:10:00.283Z,95277.03
2023-10-27T13:15:02.831Z,95279.56
2023-10-27T13:20:06.434Z,95283.19
2023-10-27T13:25:08.646Z,95293.13
2023-10-27T13:30:10.597Z,95291.47
2023-10-27T13:35:13.108Z,95296.66
2023-10-27T13:40:15.805Z,95308.78
2023-10-27T13:45:17.781Z,95312.53
2023-10-27T13:50:19.575Z,95317.84
2023-10-27T13:55:23.450Z,95315.09
2023-10-27T14:00:28.490Z,95318.59
2023-10-27T14:05:31.170Z,95313.03
2023-10-27T14:10:33.296Z,95318.81
2023-10-27T14:15:36.098Z,95324.94
2023-10-27T14:20:37.966Z,95327.47
2023-10-27T14:25:39.966Z,95343.88
2023-10-27T14:30:42.948Z,95348.88
2023-10-27T14:35:44.820Z,95343.44
2023-10-27T14:40:53.760Z,95347.63
2023-10-27T14:46:00.166Z,95357.31
2023-10-27T14:51:04.170Z,95364.38
2023-10-27T14:56:08.546Z,95358.28
2023-10-27T15:01:12.331Z,95346.13
2023-10-27T15:06:14.338Z,95361.88
2023-10-27T15:11:16.144Z,95363.72
2023-10-27T15:16:18.325Z,95372.53
2023-10-27T15:21:20.261Z,95380.97
2023-10-27T15:26:25.392Z,95381.69
2023-10-27T15:31:28.493Z,95383.34
2023-10-27T15:36:32.590Z,95402.09
2023-10-27T15:41:36.252Z,95399.53
2023-10-27T15:46:39.403Z,95412.97
2023-10-27T15:51:41.405Z,95418.00
2023-10-27T15:56:43.226Z,95420.75
2023-10-27T16:01:45.202Z,95422.38
2023-10-27T16:06:47.477Z,95426.78
2023-10-27T16:11:49.411Z,95423.03
2023-10-27T16:16:51.166Z,95431.28
2023-10-27T16:21:53.047Z,95435.81
2023-10-27T16:26:57.865Z,95438.41
2023-10-27T16:31:59.618Z,95434.03
2023-10-27T16:37:01.735Z,95434.00
2023-10-27T16:42:06.454Z,95440.63
2023-10-27T16:47:08.254Z,95456.16
2023-10-27T16:52:10.469Z,95459.88
2023-10-27T16:57:14.651Z,95452.44
2023-10-27T17:02:17.059Z,95456.78
2023-10-27T17:07:19.399Z,95461.00
2023-10-27T17:12:21.650Z,95478.31
2023-10-27T17:17:24.082Z,95474.44
2023-10-27T17:22:26.032Z,95480.09
2023-10-27T17:27:27.896Z,95486.88
2023-10-27T17:32:30.231Z,95488.34
2023-10-27T17:37:32.383Z,95494.50
2023-10-27T17:42:34.564Z,95494.50
2023-10-27T17:47:36.630Z,95508.38
2023-10-27T17:52:38.690Z,95504.66
2023-10-27T17:57:46.924Z,95508.53
2023-10-27T18:02:49.334Z,95510.81
2023-10-27T18:07:54.695Z,95503.69
2023-10-27T18:12:57.612Z,95509.19
2023-10-27T18:17:59.710Z,95517.75
2023-10-27T18:23:02.408Z,95523.88
2023-10-27T18:28:05.436Z,95525.97
2023-10-27T18:33:10.052Z,95522.91
2023-10-27T18:38:14.147Z,95525.47
2023-10-27T18:43:15.866Z,95531.16
2023-10-27T18:48:17.640Z,95531.16
2023-10-27T18:53:19.520Z,95539.09
2023-10-27T18:58:21.706Z,95539.25
2023-10-27T19:03:30.723Z,95544.25
2023-10-27T19:08:34.070Z,95544.41
2023-10-27T19:13:36.556Z,95553.47
2023-10-27T19:18:40.117Z,95548.09
2023-10-27T19:23:45.286Z,95561.34
2023-10-27T19:28:52.635Z,95558.28
2023-10-27T19:33:56.414Z,95565.06
2023-10-27T19:38:58.553Z,95570.38
2023-10-27T19:44:00.624Z,95576.50
2023-10-27T19:49:02.887Z,95575.38
2023-10-27T19:54:05.740Z,95575.38
2023-10-27T19:59:07.665Z,95588.00
2023-10-27T20:04:11.769Z,95591.84
2023-10-27T20:09:13.682Z,95587.00
2023-10-27T20:14:16.787Z,95597.34
2023-10-27T20:19:19.324Z,95600.25
2023-10-27T20:24:22.030Z,95598.09
2023-10-27T20:29:24.676Z,95599.50
2023-10-27T20:34:26.688Z,95602.97
2023-10-27T20:39:29.270Z,95597.13
2023-10-27T20:44:31.092Z,95594.22
2023-10-27T20:49:33.431Z,95595.88
2023-10-27T20:54:35.197Z,95593.13
2023-10-27T20:59:36.983Z,95595.22
2023-10-27T21:04:39.054Z,95596.41
2023-10-27T21:09:40.900Z,95598.91
2023-10-27T21:14:42.897Z,95609.06
2023-10-27T21:19:45.356Z,95612.03
2023-10-27T21:24:47.781Z,95605.19
2023-10-27T21:29:50.385Z,95603.19
2023-10-27T21:34:52.235Z,95603.25
2023-10-27T21:39:54.196Z,95597.22
2023-10-27T21:44:56.163Z,95586.00
2023-10-27T21:49:57.914Z,95585.69
2023-10-27T21:54:59.819Z,95590.88
2023-10-27T22:00:01.829Z,95597.41
2023-10-27T22:05:03.889Z,95600.19
2023-10-27T22:10:06.326Z,95595.53
2023-10-27T22:15:09.967Z,95594.06
2023-10-27T22:20:13.346Z,95599.44
2023-10-27T22:25:15.429Z,95595.47
2023-10-27T22:30:17.203Z,95599.88
2023-10-27T22:35:19.199Z,95611.13
2023-10-27T22:40:20.974Z,95608.34
2023-10-27T22:45:23.900Z,95601.50
2023-10-27T22:50:26.636Z,95606.97
2023-10-27T22:55:28.544Z,95603.72
2023-10-27T23:00:30.676Z,95607.03
2023-10-27T23:05:36.679Z,95604.50
2023-10-27T23:10:38.523Z,95611.72
2023-10-27T23:15:40.461Z,95622.66
2023-10-27T23:20:43.122Z,95625.97
2023-10-27T23:25:46.142Z,95634.28
2023-10-27T23:30:49.088Z,95632.38
2023-10-27T23:35:56.983Z,95643.22
2023-10-27T23:41:00.268Z,95655.41
2023-10-27T23:46:03.144Z,95649.72
2023-10-27T23:51:05.108Z,95662.00
2023-10-27T23:56:07.181Z,95674.25
